sensor_id;sensor_type;location;lat;lon;timestamp;temperature;humidity
61151;DHT22;47029;50.994;2.876;2022-12-16T00:00:48;1.90;99.90
61151;DHT22;47029;50.994;2.876;2022-12-16T00:03:25;2.40;99.90
61151;DHT22;47029;50.994;2.876;2022-12-16T00:05:54;0.40;99.90
61151;DHT22;47029;50.994;2.876;2022-12-16T00:08:22;1.70;99.90
61151;DHT22;47029;50.994;2.876;2022-12-16T00:10:58;-1.10;99.90
61151;DHT22;47029;50.994;2.876;2022-12-16T00:13:33;1.90;99.90
61151;DHT22;47029;50.994;2.876;2022-12-16T00:16:14;1.70;99.90
61151;DHT22;47029;50.994;2.876;2022-12-16T00:18:44;2.10;99.90
61151;DHT22;47029;50.994;2.876;2022-12-16T00:21:20;1.90;99.90
61151;DHT22;47029;50.994;2.876;2022-12-16T00:23:55;1.00;99.90
61151;DHT22;47029;50.994;2.876;2022-12-16T00:26:40;1.00;99.90
61151;DHT22;47029;50.994;2.876;2022-12-16T00:29:06;1.70;99.90
61151;DHT22;47029;50.994;2.876;2022-12-16T00:31:37;1.70;99.90
61151;DHT22;47029;50.994;2.876;2022-12-16T00:34:17;1.60;99.90
61151;DHT22;47029;50.994;2.876;2022-12-16T00:36:59;3.40;99.90
61151;DHT22;47029;50.994;2.876;2022-12-16T00:39:30;1.40;99.90
61151;DHT22;47029;50.994;2.876;2022-12-16T00:41:56;2.00;99.90
61151;DHT22;47029;50.994;2.876;2022-12-16T00:44:24;2.70;99.90
61151;DHT22;47029;50.994;2.876;2022-12-16T00:46:57;1.10;99.90
61151;DHT22;47029;50.994;2.876;2022-12-16T00:49:26;1.50;99.90
61151;DHT22;47029;50.994;2.876;2022-12-16T00:51:56;0.30;99.90
61151;DHT22;47029;50.994;2.876;2022-12-16T00:54:27;1.60;99.90
61151;DHT22;47029;50.994;2.876;2022-12-16T00:56:53;1.70;99.90
61151;DHT22;47029;50.994;2.876;2022-12-16T00:59:32;3.80;99.90
61151;DHT22;47029;50.994;2.876;2022-12-16T01:01:58;1.80;99.90
61151;DHT22;47029;50.994;2.876;2022-12-16T01:04:26;3.50;99.90
61151;DHT22;47029;50.994;2.876;2022-12-16T01:07:16;1.90;99.90
61151;DHT22;47029;50.994;2.876;2022-12-16T01:09:42;2.20;99.90
61151;DHT22;47029;50.994;2.876;2022-12-16T01:12:34;2.10;99.90
61151;DHT22;47029;50.994;2.876;2022-12-16T01:15:08;1.90;99.90
61151;DHT22;47029;50.994;2.876;2022-12-16T01:17:34;0.10;99.90
61151;DHT22;47029;50.994;2.876;2022-12-16T01:20:08;2.00;99.90
61151;DHT22;47029;50.994;2.876;2022-12-16T01:22:38;2.00;99.90
61151;DHT22;47029;50.994;2.876;2022-12-16T01:25:21;2.20;99.90
61151;DHT22;47029;50.994;2.876;2022-12-16T01:27:53;2.20;99.90
61151;DHT22;47029;50.994;2.876;2022-12-16T01:30:19;0.60;99.90
61151;DHT22;47029;50.994;2.876;2022-12-16T01:33:15;2.20;99.90
61151;DHT22;47029;50.994;2.876;2022-12-16T01:35:41;2.50;99.90
61151;DHT22;47029;50.994;2.876;2022-12-16T01:38:09;3.60;99.90
61151;DHT22;47029;50.994;2.876;2022-12-16T01:40:38;2.20;99.90
61151;DHT22;47029;50.994;2.876;2022-12-16T01:43:10;0.70;99.90
61151;DHT22;47029;50.994;2.876;2022-12-16T01:45:39;3.40;99.90
61151;DHT22;47029;50.994;2.876;2022-12-16T01:48:42;2.30;99.90
61151;DHT22;47029;50.994;2.876;2022-12-16T01:51:31;1.10;99.90
61151;DHT22;47029;50.994;2.876;2022-12-16T01:54:07;2.10;99.90
61151;DHT22;47029;50.994;2.876;2022-12-16T01:56:40;1.80;99.90
61151;DHT22;47029;50.994;2.876;2022-12-16T01:59:13;3.70;99.90
61151;DHT22;47029;50.994;2.876;2022-12-16T02:01:51;2.00;99.90
61151;DHT22;47029;50.994;2.876;2022-12-16T02:04:22;2.90;99.90
61151;DHT22;47029;50.994;2.876;2022-12-16T02:06:48;1.60;99.90
61151;DHT22;47029;50.994;2.876;2022-12-16T02:09:23;2.90;99.90
61151;DHT22;47029;50.994;2.876;2022-12-16T02:12:28;3.10;99.90
61151;DHT22;47029;50.994;2.876;2022-12-16T02:18:04;1.50;99.90
61151;DHT22;47029;50.994;2.876;2022-12-16T02:34:42;1.10;99.90
61151;DHT22;47029;50.994;2.876;2022-12-16T02:38:04;1.10;99.90
61151;DHT22;47029;50.994;2.876;2022-12-16T02:41:03;3.20;99.90
61151;DHT22;47029;50.994;2.876;2022-12-16T02:46:04;1.00;99.90
61151;DHT22;47029;50.994;2.876;2022-12-16T02:48:36;0.40;99.90
61151;DHT22;47029;50.994;2.876;2022-12-16T02:51:05;1.50;99.90
61151;DHT22;47029;50.994;2.876;2022-12-16T02:53:42;1.20;99.90
61151;DHT22;47029;50.994;2.876;2022-12-16T03:05:35;1.20;99.90
61151;DHT22;47029;50.994;2.876;2022-12-16T03:08:28;0.10;99.90
61151;DHT22;47029;50.994;2.876;2022-12-16T03:11:00;-0.30;99.90
61151;DHT22;47029;50.994;2.876;2022-12-16T03:13:47;0.80;99.90
61151;DHT22;47029;50.994;2.876;2022-12-16T03:16:25;0.80;99.90
61151;DHT22;47029;50.994;2.876;2022-12-16T03:18:57;1.70;99.90
61151;DHT22;47029;50.994;2.876;2022-12-16T03:21:29;2.90;99.90
61151;DHT22;47029;50.994;2.876;2022-12-16T03:23:58;1.60;99.90
61151;DHT22;47029;50.994;2.876;2022-12-16T03:27:16;1.40;99.90
61151;DHT22;47029;50.994;2.876;2022-12-16T03:32:13;0.60;99.90
61151;DHT22;47029;50.994;2.876;2022-12-16T03:34:52;0.60;99.90
61151;DHT22;47029;50.994;2.876;2022-12-16T03:37:26;-0.80;99.90
61151;DHT22;47029;50.994;2.876;2022-12-16T03:39:59;-0.20;99.90
61151;DHT22;47029;50.994;2.876;2022-12-16T03:42:26;1.50;99.90
61151;DHT22;47029;50.994;2.876;2022-12-16T03:45:04;0.40;99.90
61151;DHT22;47029;50.994;2.876;2022-12-16T03:47:40;0.10;99.90
61151;DHT22;47029;50.994;2.876;2022-12-16T03:50:11;1.20;99.90
61151;DHT22;47029;50.994;2.876;2022-12-16T03:52:38;1.70;99.90
61151;DHT22;47029;50.994;2.876;2022-12-16T03:55:07;0.70;99.90
61151;DHT22;47029;50.994;2.876;2022-12-16T03:57:39;0.10;99.90
61151;DHT22;47029;50.994;2.876;2022-12-16T04:00:09;0.20;99.90
61151;DHT22;47029;50.994;2.876;2022-12-16T04:02:36;0.00;99.90
61151;DHT22;47029;50.994;2.876;2022-12-16T04:05:04;-0.70;99.90
61151;DHT22;47029;50.994;2.876;2022-12-16T04:07:40;-0.70;99.90
61151;DHT22;47029;50.994;2.876;2022-12-16T04:10:21;0.80;99.90
61151;DHT22;47029;50.994;2.876;2022-12-16T04:13:11;1.10;99.90
61151;DHT22;47029;50.994;2.876;2022-12-16T04:15:58;-1.30;99.90
61151;DHT22;47029;50.994;2.876;2022-12-16T04:18:44;1.10;99.90
61151;DHT22;47029;50.994;2.876;2022-12-16T04:21:31;1.80;99.90
61151;DHT22;47029;50.994;2.876;2022-12-16T04:24:17;0.10;99.90
61151;DHT22;47029;50.994;2.876;2022-12-16T04:26:46;1.00;99.90
61151;DHT22;47029;50.994;2.876;2022-12-16T04:29:31;2.40;99.90
61151;DHT22;47029;50.994;2.876;2022-12-16T04:31:59;-0.30;99.90
61151;DHT22;47029;50.994;2.876;2022-12-16T04:34:25;1.70;99.90
61151;DHT22;47029;50.994;2.876;2022-12-16T04:36:59;1.20;99.90
61151;DHT22;47029;50.994;2.876;2022-12-16T04:39:47;-0.70;99.90
61151;DHT22;47029;50.994;2.876;2022-12-16T04:42:39;1.20;99.90
61151;DHT22;47029;50.994;2.876;2022-12-16T04:45:24;-2.40;99.90
61151;DHT22;47029;50.994;2.876;2022-12-16T04:48:18;-0.70;99.90
61151;DHT22;47029;50.994;2.876;2022-12-16T04:51:08;0.60;99.90
61151;DHT22;47029;50.994;2.876;2022-12-16T04:53:56;-0.10;99.90
61151;DHT22;47029;50.994;2.876;2022-12-16T04:56:41;0.20;99.90
61151;DHT22;47029;50.994;2.876;2022-12-16T04:59:27;-1.40;99.90
61151;DHT22;47029;50.994;2.876;2022-12-16T05:02:32;0.50;99.90
61151;DHT22;47029;50.994;2.876;2022-12-16T05:05:18;0.50;99.90
61151;DHT22;47029;50.994;2.876;2022-12-16T05:08:02;0.40;99.90
61151;DHT22;47029;50.994;2.876;2022-12-16T05:11:10;-0.70;99.90
61151;DHT22;47029;50.994;2.876;2022-12-16T05:13:57;-0.50;99.90
61151;DHT22;47029;50.994;2.876;2022-12-16T05:16:41;1.10;99.90
61151;DHT22;47029;50.994;2.876;2022-12-16T05:19:26;1.10;99.90
61151;DHT22;47029;50.994;2.876;2022-12-16T05:22:10;1.90;99.90
61151;DHT22;47029;50.994;2.876;2022-12-16T05:25:00;-1.40;99.90
61151;DHT22;47029;50.994;2.876;2022-12-16T05:27:56;-0.10;99.90
61151;DHT22;47029;50.994;2.876;2022-12-16T05:30:41;1.80;99.90
61151;DHT22;47029;50.994;2.876;2022-12-16T05:33:25;1.50;99.90
61151;DHT22;47029;50.994;2.876;2022-12-16T05:36:10;1.50;99.90
61151;DHT22;47029;50.994;2.876;2022-12-16T05:38:57;-0.40;99.90
61151;DHT22;47029;50.994;2.876;2022-12-16T05:41:41;0.20;99.90
61151;DHT22;47029;50.994;2.876;2022-12-16T05:44:37;1.70;99.90
61151;DHT22;47029;50.994;2.876;2022-12-16T05:47:22;1.60;99.90
61151;DHT22;47029;50.994;2.876;2022-12-16T05:50:10;-0.80;99.90
61151;DHT22;47029;50.994;2.876;2022-12-16T05:52:55;-0.10;99.90
61151;DHT22;47029;50.994;2.876;2022-12-16T05:55:40;-0.30;99.90
61151;DHT22;47029;50.994;2.876;2022-12-16T05:58:32;-1.90;99.90
61151;DHT22;47029;50.994;2.876;2022-12-16T06:01:25;-0.20;99.90
61151;DHT22;47029;50.994;2.876;2022-12-16T06:04:10;1.30;99.90
61151;DHT22;47029;50.994;2.876;2022-12-16T06:06:54;-0.80;99.90
61151;DHT22;47029;50.994;2.876;2022-12-16T06:09:38;-0.30;99.90
61151;DHT22;47029;50.994;2.876;2022-12-16T06:12:23;-0.10;99.90
61151;DHT22;47029;50.994;2.876;2022-12-16T06:15:08;-0.60;99.90
61151;DHT22;47029;50.994;2.876;2022-12-16T06:18:04;-1.90;99.90
61151;DHT22;47029;50.994;2.876;2022-12-16T06:20:51;-0.40;99.90
61151;DHT22;47029;50.994;2.876;2022-12-16T06:23:38;2.00;99.90
61151;DHT22;47029;50.994;2.876;2022-12-16T06:26:25;-0.30;99.90
61151;DHT22;47029;50.994;2.876;2022-12-16T06:29:12;0.10;99.90
61151;DHT22;47029;50.994;2.876;2022-12-16T06:31:59;1.30;99.90
61151;DHT22;47029;50.994;2.876;2022-12-16T06:34:53;1.60;99.90
61151;DHT22;47029;50.994;2.876;2022-12-16T06:37:48;-0.80;99.90
61151;DHT22;47029;50.994;2.876;2022-12-16T06:40:35;0.90;99.90
61151;DHT22;47029;50.994;2.876;2022-12-16T06:43:22;1.80;99.90
61151;DHT22;47029;50.994;2.876;2022-12-16T06:46:09;0.90;99.90
61151;DHT22;47029;50.994;2.876;2022-12-16T06:49:02;2.70;99.90
61151;DHT22;47029;50.994;2.876;2022-12-16T06:51:49;1.40;99.90
61151;DHT22;47029;50.994;2.876;2022-12-16T06:54:41;0.00;99.90
61151;DHT22;47029;50.994;2.876;2022-12-16T06:57:25;1.00;99.90
61151;DHT22;47029;50.994;2.876;2022-12-16T07:00:13;1.00;99.90
61151;DHT22;47029;50.994;2.876;2022-12-16T07:03:02;1.80;99.90
61151;DHT22;47029;50.994;2.876;2022-12-16T07:05:58;0.40;99.90
61151;DHT22;47029;50.994;2.876;2022-12-16T07:08:42;1.10;99.90
61151;DHT22;47029;50.994;2.876;2022-12-16T07:11:27;1.00;99.90
61151;DHT22;47029;50.994;2.876;2022-12-16T07:14:13;1.00;99.90
61151;DHT22;47029;50.994;2.876;2022-12-16T07:17:05;1.50;99.90
61151;DHT22;47029;50.994;2.876;2022-12-16T07:19:50;0.00;99.90
61151;DHT22;47029;50.994;2.876;2022-12-16T07:22:44;2.30;99.90
61151;DHT22;47029;50.994;2.876;2022-12-16T07:25:29;1.00;99.90
61151;DHT22;47029;50.994;2.876;2022-12-16T07:28:13;1.70;99.90
61151;DHT22;47029;50.994;2.876;2022-12-16T07:30:58;1.10;99.90
61151;DHT22;47029;50.994;2.876;2022-12-16T07:33:45;3.00;99.90
61151;DHT22;47029;50.994;2.876;2022-12-16T07:36:32;2.30;99.90
61151;DHT22;47029;50.994;2.876;2022-12-16T07:39:26;0.80;99.90
61151;DHT22;47029;50.994;2.876;2022-12-16T07:42:16;0.80;99.90
61151;DHT22;47029;50.994;2.876;2022-12-16T07:45:03;1.70;99.90
61151;DHT22;47029;50.994;2.876;2022-12-16T07:47:53;0.60;99.90
61151;DHT22;47029;50.994;2.876;2022-12-16T07:50:38;-0.10;99.90
61151;DHT22;47029;50.994;2.876;2022-12-16T07:53:25;0.60;99.90
61151;DHT22;47029;50.994;2.876;2022-12-16T07:56:13;2.70;99.90
61151;DHT22;47029;50.994;2.876;2022-12-16T07:59:02;-0.70;99.90
61151;DHT22;47029;50.994;2.876;2022-12-16T08:02:04;0.60;99.90
61151;DHT22;47029;50.994;2.876;2022-12-16T08:04:55;2.00;99.90
61151;DHT22;47029;50.994;2.876;2022-12-16T08:07:53;-0.40;99.90
61151;DHT22;47029;50.994;2.876;2022-12-16T08:10:44;-0.60;99.90
61151;DHT22;47029;50.994;2.876;2022-12-16T08:13:29;1.10;99.90
61151;DHT22;47029;50.994;2.876;2022-12-16T08:16:16;-0.20;99.90
61151;DHT22;47029;50.994;2.876;2022-12-16T08:19:03;0.50;99.90
61151;DHT22;47029;50.994;2.876;2022-12-16T08:21:48;2.00;99.90
61151;DHT22;47029;50.994;2.876;2022-12-16T08:24:35;-0.70;99.90
61151;DHT22;47029;50.994;2.876;2022-12-16T08:27:20;1.20;99.90
61151;DHT22;47029;50.994;2.876;2022-12-16T08:30:12;1.70;99.90
61151;DHT22;47029;50.994;2.876;2022-12-16T08:33:02;0.70;99.90
61151;DHT22;47029;50.994;2.876;2022-12-16T08:35:49;0.80;99.90
61151;DHT22;47029;50.994;2.876;2022-12-16T08:38:33;0.60;99.90
61151;DHT22;47029;50.994;2.876;2022-12-16T08:41:20;2.50;99.90
61151;DHT22;47029;50.994;2.876;2022-12-16T08:44:07;2.90;99.90
61151;DHT22;47029;50.994;2.876;2022-12-16T08:49:58;1.00;99.90
61151;DHT22;47029;50.994;2.876;2022-12-16T08:52:45;0.90;99.90
61151;DHT22;47029;50.994;2.876;2022-12-16T08:55:30;0.90;99.90
61151;DHT22;47029;50.994;2.876;2022-12-16T08:58:22;1.00;99.90
61151;DHT22;47029;50.994;2.876;2022-12-16T09:01:15;1.00;99.90
61151;DHT22;47029;50.994;2.876;2022-12-16T09:04:00;1.40;99.90
61151;DHT22;47029;50.994;2.876;2022-12-16T09:06:44;2.30;99.90
61151;DHT22;47029;50.994;2.876;2022-12-16T09:09:29;0.80;99.90
61151;DHT22;47029;50.994;2.876;2022-12-16T09:12:13;1.90;99.90
61151;DHT22;47029;50.994;2.876;2022-12-16T09:15:18;1.10;99.90
61151;DHT22;47029;50.994;2.876;2022-12-16T09:18:05;-0.50;99.90
61151;DHT22;47029;50.994;2.876;2022-12-16T09:20:50;0.70;99.90
61151;DHT22;47029;50.994;2.876;2022-12-16T09:23:37;3.20;99.90
61151;DHT22;47029;50.994;2.876;2022-12-16T09:26:24;1.50;99.90
61151;DHT22;47029;50.994;2.876;2022-12-16T09:29:11;1.80;99.90
61151;DHT22;47029;50.994;2.876;2022-12-16T09:32:06;2.50;99.90
61151;DHT22;47029;50.994;2.876;2022-12-16T09:35:09;1.80;99.90
61151;DHT22;47029;50.994;2.876;2022-12-16T09:37:53;3.00;99.90
61151;DHT22;47029;50.994;2.876;2022-12-16T09:40:55;1.60;99.90
61151;DHT22;47029;50.994;2.876;2022-12-16T09:44:03;0.70;99.90
61151;DHT22;47029;50.994;2.876;2022-12-16T09:47:13;1.80;99.90
61151;DHT22;47029;50.994;2.876;2022-12-16T09:50:04;1.60;99.90
61151;DHT22;47029;50.994;2.876;2022-12-16T09:52:58;1.60;99.90
61151;DHT22;47029;50.994;2.876;2022-12-16T09:55:45;2.60;99.90
61151;DHT22;47029;50.994;2.876;2022-12-16T09:58:42;1.90;99.90
61151;DHT22;47029;50.994;2.876;2022-12-16T10:01:32;2.10;99.90
61151;DHT22;47029;50.994;2.876;2022-12-16T10:04:25;0.80;99.90
61151;DHT22;47029;50.994;2.876;2022-12-16T10:07:19;3.50;99.90
61151;DHT22;47029;50.994;2.876;2022-12-16T10:19:21;2.20;99.90
61151;DHT22;47029;50.994;2.876;2022-12-16T10:25:39;2.60;99.90
61151;DHT22;47029;50.994;2.876;2022-12-16T10:28:48;1.20;99.90
61151;DHT22;47029;50.994;2.876;2022-12-16T10:31:36;3.60;99.90
61151;DHT22;47029;50.994;2.876;2022-12-16T10:34:47;2.60;99.90
61151;DHT22;47029;50.994;2.876;2022-12-16T10:37:34;2.70;99.90
61151;DHT22;47029;50.994;2.876;2022-12-16T10:40:24;4.20;99.90
61151;DHT22;47029;50.994;2.876;2022-12-16T10:46:19;3.00;99.90
61151;DHT22;47029;50.994;2.876;2022-12-16T10:49:04;1.90;99.90
61151;DHT22;47029;50.994;2.876;2022-12-16T10:51:48;4.00;99.90
61151;DHT22;47029;50.994;2.876;2022-12-16T10:54:39;3.10;99.90
61151;DHT22;47029;50.994;2.876;2022-12-16T11:00:44;2.40;99.90
61151;DHT22;47029;50.994;2.876;2022-12-16T11:03:35;3.90;99.90
61151;DHT22;47029;50.994;2.876;2022-12-16T11:06:37;2.40;99.90
61151;DHT22;47029;50.994;2.876;2022-12-16T11:09:32;2.80;99.90
61151;DHT22;47029;50.994;2.876;2022-12-16T11:12:30;4.00;99.90
61151;DHT22;47029;50.994;2.876;2022-12-16T11:15:56;4.00;99.90
61151;DHT22;47029;50.994;2.876;2022-12-16T11:18:49;6.00;99.90
61151;DHT22;47029;50.994;2.876;2022-12-16T11:21:36;2.70;99.90
61151;DHT22;47029;50.994;2.876;2022-12-16T11:24:23;3.90;99.90
61151;DHT22;47029;50.994;2.876;2022-12-16T11:27:21;5.70;99.90
61151;DHT22;47029;50.994;2.876;2022-12-16T11:30:20;4.00;99.90
61151;DHT22;47029;50.994;2.876;2022-12-16T11:33:18;6.00;99.90
61151;DHT22;47029;50.994;2.876;2022-12-16T11:36:13;4.10;99.90
61151;DHT22;47029;50.994;2.876;2022-12-16T11:39:01;4.20;99.90
61151;DHT22;47029;50.994;2.876;2022-12-16T11:41:49;6.00;99.90
61151;DHT22;47029;50.994;2.876;2022-12-16T11:44:41;4.10;99.90
61151;DHT22;47029;50.994;2.876;2022-12-16T11:50:24;4.10;99.90
61151;DHT22;47029;50.994;2.876;2022-12-16T11:53:43;4.00;99.90
61151;DHT22;47029;50.994;2.876;2022-12-16T11:56:52;4.10;99.90
61151;DHT22;47029;50.994;2.876;2022-12-16T12:02:35;4.90;99.90
61151;DHT22;47029;50.994;2.876;2022-12-16T12:05:43;4.20;99.90
61151;DHT22;47029;50.994;2.876;2022-12-16T12:08:53;6.30;99.90
61151;DHT22;47029;50.994;2.876;2022-12-16T12:11:53;4.50;99.90
61151;DHT22;47029;50.994;2.876;2022-12-16T12:14:47;4.50;99.90
61151;DHT22;47029;50.994;2.876;2022-12-16T12:21:11;4.80;99.90
61151;DHT22;47029;50.994;2.876;2022-12-16T12:30:17;5.20;99.90
61151;DHT22;47029;50.994;2.876;2022-12-16T12:35:55;5.20;99.90
61151;DHT22;47029;50.994;2.876;2022-12-16T12:42:08;4.60;99.90
61151;DHT22;47029;50.994;2.876;2022-12-16T12:47:50;4.80;99.90
61151;DHT22;47029;50.994;2.876;2022-12-16T12:50:53;4.60;99.90
61151;DHT22;47029;50.994;2.876;2022-12-16T12:56:53;3.60;99.90
61151;DHT22;47029;50.994;2.876;2022-12-16T13:02:55;5.10;99.90
61151;DHT22;47029;50.994;2.876;2022-12-16T13:05:48;5.10;99.90
61151;DHT22;47029;50.994;2.876;2022-12-16T13:11:34;4.40;99.90
61151;DHT22;47029;50.994;2.876;2022-12-16T13:17:16;5.40;99.90
61151;DHT22;47029;50.994;2.876;2022-12-16T13:20:02;5.20;99.90
61151;DHT22;47029;50.994;2.876;2022-12-16T13:22:46;5.40;99.90
61151;DHT22;47029;50.994;2.876;2022-12-16T13:25:48;5.40;99.90
61151;DHT22;47029;50.994;2.876;2022-12-16T13:28:37;5.50;99.90
61151;DHT22;47029;50.994;2.876;2022-12-16T13:31:23;5.50;99.90
61151;DHT22;47029;50.994;2.876;2022-12-16T13:37:02;5.90;99.90
61151;DHT22;47029;50.994;2.876;2022-12-16T13:40:22;6.00;99.90
61151;DHT22;47029;50.994;2.876;2022-12-16T13:46:44;5.00;99.90
61151;DHT22;47029;50.994;2.876;2022-12-16T13:52:31;4.60;99.90
61151;DHT22;47029;50.994;2.876;2022-12-16T13:58:49;5.30;99.90
61151;DHT22;47029;50.994;2.876;2022-12-16T14:01:37;4.40;99.90
61151;DHT22;47029;50.994;2.876;2022-12-16T14:04:34;5.30;99.90
61151;DHT22;47029;50.994;2.876;2022-12-16T14:07:24;5.30;99.90
61151;DHT22;47029;50.994;2.876;2022-12-16T14:10:34;7.30;99.90
61151;DHT22;47029;50.994;2.876;2022-12-16T14:13:43;5.50;99.90
61151;DHT22;47029;50.994;2.876;2022-12-16T14:19:25;5.80;99.90
61151;DHT22;47029;50.994;2.876;2022-12-16T14:25:21;5.70;99.90
61151;DHT22;47029;50.994;2.876;2022-12-16T14:28:24;5.70;99.90
61151;DHT22;47029;50.994;2.876;2022-12-16T14:31:19;5.70;99.90
61151;DHT22;47029;50.994;2.876;2022-12-16T14:34:04;5.50;99.90
61151;DHT22;47029;50.994;2.876;2022-12-16T14:36:55;5.30;99.90
61151;DHT22;47029;50.994;2.876;2022-12-16T14:39:39;5.50;99.90
61151;DHT22;47029;50.994;2.876;2022-12-16T14:42:28;5.40;99.90
61151;DHT22;47029;50.994;2.876;2022-12-16T14:51:35;6.50;99.90
61151;DHT22;47029;50.994;2.876;2022-12-16T14:57:19;5.70;99.90
61151;DHT22;47029;50.994;2.876;2022-12-16T15:00:19;5.60;99.90
61151;DHT22;47029;50.994;2.876;2022-12-16T15:03:12;5.50;99.90
61151;DHT22;47029;50.994;2.876;2022-12-16T15:06:03;3.40;99.90
61151;DHT22;47029;50.994;2.876;2022-12-16T15:08:55;4.50;99.90
61151;DHT22;47029;50.994;2.876;2022-12-16T15:11:44;5.40;99.90
61151;DHT22;47029;50.994;2.876;2022-12-16T15:14:32;5.10;99.90
61151;DHT22;47029;50.994;2.876;2022-12-16T15:17:23;4.90;99.90
61151;DHT22;47029;50.994;2.876;2022-12-16T15:20:36;4.30;99.90
61151;DHT22;47029;50.994;2.876;2022-12-16T15:23:30;4.90;99.90
61151;DHT22;47029;50.994;2.876;2022-12-16T15:26:19;4.60;99.90
61151;DHT22;47029;50.994;2.876;2022-12-16T15:29:22;4.50;99.90
61151;DHT22;47029;50.994;2.876;2022-12-16T15:35:22;4.30;99.90
61151;DHT22;47029;50.994;2.876;2022-12-16T15:38:11;4.10;99.90
61151;DHT22;47029;50.994;2.876;2022-12-16T15:40:55;4.80;99.90
61151;DHT22;47029;50.994;2.876;2022-12-16T15:43:43;4.10;99.90
61151;DHT22;47029;50.994;2.876;2022-12-16T15:46:29;4.20;99.90
61151;DHT22;47029;50.994;2.876;2022-12-16T15:49:33;4.90;99.90
61151;DHT22;47029;50.994;2.876;2022-12-16T15:52:41;3.70;99.90
61151;DHT22;47029;50.994;2.876;2022-12-16T15:58:29;3.60;99.90
61151;DHT22;47029;50.994;2.876;2022-12-16T16:01:20;3.50;99.90
61151;DHT22;47029;50.994;2.876;2022-12-16T16:04:20;3.50;99.90
61151;DHT22;47029;50.994;2.876;2022-12-16T16:07:19;3.40;99.90
61151;DHT22;47029;50.994;2.876;2022-12-16T16:10:33;3.00;99.90
61151;DHT22;47029;50.994;2.876;2022-12-16T16:13:18;4.90;99.90
61151;DHT22;47029;50.994;2.876;2022-12-16T16:16:03;3.90;99.90
61151;DHT22;47029;50.994;2.876;2022-12-16T16:18:48;3.10;99.90
61151;DHT22;47029;50.994;2.876;2022-12-16T16:21:35;3.00;99.90
61151;DHT22;47029;50.994;2.876;2022-12-16T16:24:21;4.90;99.90
61151;DHT22;47029;50.994;2.876;2022-12-16T16:27:11;4.90;99.90
61151;DHT22;47029;50.994;2.876;2022-12-16T16:29:59;2.60;99.90
61151;DHT22;47029;50.994;2.876;2022-12-16T16:32:44;1.60;99.90
61151;DHT22;47029;50.994;2.876;2022-12-16T16:35:30;3.10;99.90
61151;DHT22;47029;50.994;2.876;2022-12-16T16:38:15;4.60;99.90
61151;DHT22;47029;50.994;2.876;2022-12-16T16:41:12;3.80;99.90
61151;DHT22;47029;50.994;2.876;2022-12-16T16:43:57;3.10;99.90
61151;DHT22;47029;50.994;2.876;2022-12-16T16:46:44;2.60;99.90
61151;DHT22;47029;50.994;2.876;2022-12-16T16:49:32;2.60;99.90
61151;DHT22;47029;50.994;2.876;2022-12-16T16:52:18;2.50;99.90
61151;DHT22;47029;50.994;2.876;2022-12-16T16:55:04;2.40;99.90
61151;DHT22;47029;50.994;2.876;2022-12-16T16:57:48;2.50;99.90
61151;DHT22;47029;50.994;2.876;2022-12-16T17:00:33;2.60;99.90
61151;DHT22;47029;50.994;2.876;2022-12-16T17:03:30;2.00;99.90
61151;DHT22;47029;50.994;2.876;2022-12-16T17:06:15;1.70;99.90
61151;DHT22;47029;50.994;2.876;2022-12-16T17:09:01;2.20;99.90
61151;DHT22;47029;50.994;2.876;2022-12-16T17:11:45;3.50;99.90
61151;DHT22;47029;50.994;2.876;2022-12-16T17:14:32;2.00;99.90
61151;DHT22;47029;50.994;2.876;2022-12-16T17:17:19;3.40;99.90
61151;DHT22;47029;50.994;2.876;2022-12-16T17:20:07;1.50;99.90
61151;DHT22;47029;50.994;2.876;2022-12-16T17:22:51;1.40;99.90
61151;DHT22;47029;50.994;2.876;2022-12-16T17:25:36;2.30;99.90
61151;DHT22;47029;50.994;2.876;2022-12-16T17:28:23;3.00;99.90
61151;DHT22;47029;50.994;2.876;2022-12-16T17:31:10;3.50;99.90
61151;DHT22;47029;50.994;2.876;2022-12-16T17:34:00;3.40;99.90
61151;DHT22;47029;50.994;2.876;2022-12-16T17:36:44;0.40;99.90
61151;DHT22;47029;50.994;2.876;2022-12-16T17:39:32;2.10;99.90
61151;DHT22;47029;50.994;2.876;2022-12-16T17:42:16;1.30;99.90
61151;DHT22;47029;50.994;2.876;2022-12-16T17:45:03;1.50;99.90
61151;DHT22;47029;50.994;2.876;2022-12-16T17:47:48;0.10;99.90
61151;DHT22;47029;50.994;2.876;2022-12-16T17:50:43;1.50;99.90
61151;DHT22;47029;50.994;2.876;2022-12-16T17:53:30;2.40;99.90
61151;DHT22;47029;50.994;2.876;2022-12-16T17:56:14;2.40;99.90
61151;DHT22;47029;50.994;2.876;2022-12-16T17:58:59;1.20;99.90
61151;DHT22;47029;50.994;2.876;2022-12-16T18:01:48;3.00;99.90
61151;DHT22;47029;50.994;2.876;2022-12-16T18:04:35;1.30;99.90
61151;DHT22;47029;50.994;2.876;2022-12-16T18:07:22;1.90;99.90
61151;DHT22;47029;50.994;2.876;2022-12-16T18:10:09;1.90;99.90
61151;DHT22;47029;50.994;2.876;2022-12-16T18:12:58;1.00;99.90
61151;DHT22;47029;50.994;2.876;2022-12-16T18:15:50;-0.80;99.90
61151;DHT22;47029;50.994;2.876;2022-12-16T18:18:37;1.40;99.90
61151;DHT22;47029;50.994;2.876;2022-12-16T18:21:22;0.70;99.90
61151;DHT22;47029;50.994;2.876;2022-12-16T18:24:18;2.50;99.90
61151;DHT22;47029;50.994;2.876;2022-12-16T18:27:02;0.30;99.90
61151;DHT22;47029;50.994;2.876;2022-12-16T18:30:13;0.50;99.90
61151;DHT22;47029;50.994;2.876;2022-12-16T18:33:02;-1.00;99.90
61151;DHT22;47029;50.994;2.876;2022-12-16T18:35:47;0.60;99.90
61151;DHT22;47029;50.994;2.876;2022-12-16T18:38:31;0.50;99.90
61151;DHT22;47029;50.994;2.876;2022-12-16T18:44:22;2.20;99.90
61151;DHT22;47029;50.994;2.876;2022-12-16T18:47:09;1.60;99.90
61151;DHT22;47029;50.994;2.876;2022-12-16T18:49:54;0.90;99.90
61151;DHT22;47029;50.994;2.876;2022-12-16T18:52:41;0.50;99.90
61151;DHT22;47029;50.994;2.876;2022-12-16T18:55:25;-0.60;99.90
61151;DHT22;47029;50.994;2.876;2022-12-16T18:58:12;1.90;99.90
61151;DHT22;47029;50.994;2.876;2022-12-16T19:01:15;-0.60;99.90
61151;DHT22;47029;50.994;2.876;2022-12-16T19:04:18;1.00;99.90
61151;DHT22;47029;50.994;2.876;2022-12-16T19:07:14;0.70;99.90
61151;DHT22;47029;50.994;2.876;2022-12-16T19:09:58;1.30;99.90
61151;DHT22;47029;50.994;2.876;2022-12-16T19:12:43;-0.50;99.90
61151;DHT22;47029;50.994;2.876;2022-12-16T19:15:35;2.30;99.90
61151;DHT22;47029;50.994;2.876;2022-12-16T19:18:19;0.60;99.90
61151;DHT22;47029;50.994;2.876;2022-12-16T19:21:07;2.20;99.90
61151;DHT22;47029;50.994;2.876;2022-12-16T19:23:58;-1.40;99.90
61151;DHT22;47029;50.994;2.876;2022-12-16T19:26:45;2.30;99.90
61151;DHT22;47029;50.994;2.876;2022-12-16T19:29:30;1.90;99.90
61151;DHT22;47029;50.994;2.876;2022-12-16T19:32:14;0.70;99.90
61151;DHT22;47029;50.994;2.876;2022-12-16T19:35:02;0.20;99.90
61151;DHT22;47029;50.994;2.876;2022-12-16T19:37:49;-0.60;99.90
61151;DHT22;47029;50.994;2.876;2022-12-16T19:40:34;0.40;99.90
61151;DHT22;47029;50.994;2.876;2022-12-16T19:43:21;1.80;99.90
61151;DHT22;47029;50.994;2.876;2022-12-16T19:46:07;1.30;99.90
61151;DHT22;47029;50.994;2.876;2022-12-16T19:48:52;0.40;99.90
61151;DHT22;47029;50.994;2.876;2022-12-16T19:51:39;1.70;99.90
61151;DHT22;47029;50.994;2.876;2022-12-16T19:54:24;1.50;99.90
61151;DHT22;47029;50.994;2.876;2022-12-16T19:57:08;2.00;99.90